Time;durP1;ratioP1;P1;durP2;ratioP2;P2;SDS_P1;SDS_P2;PMS_P1;PMS_P2;Temp;Humidity;BMP_temperature;BMP_pressure;BME280_temperature;BME280_humidity;BME280_pressure;Samples;Min_cycle;Max_cycle;Signal;HPM_P1;HPM_P2
2023/09/03 00:01:50;;;;;;;4.68;2.25;;;11.80;99.90;;;;;;4987512;28;20549;-62
2023/09/03 00:04:16;;;;;;;4.15;2.33;;;11.80;99.90;;;;;;4976439;28;20130;-62
2023/09/03 00:06:42;;;;;;;2.67;1.60;;;11.80;99.90;;;;;;5051967;28;20043;-62
2023/09/03 00:09:08;;;;;;;4.75;1.83;;;11.80;99.90;;;;;;5034762;28;20112;-62
2023/09/03 00:11:33;;;;;;;4.75;1.80;;;11.70;99.90;;;;;;5035641;28;20089;-62
2023/09/03 00:13:59;;;;;;;5.22;2.05;;;11.60;99.90;;;;;;5035767;28;20045;-62
2023/09/03 00:16:26;;;;;;;3.03;1.65;;;11.60;99.90;;;;;;4986631;28;20045;-61
2023/09/03 00:18:52;;;;;;;2.13;1.00;;;11.70;99.90;;;;;;4988032;28;20042;-62
2023/09/03 00:21:17;;;;;;;2.92;1.23;;;11.70;99.90;;;;;;5054923;28;20045;-62
2023/09/03 00:23:43;;;;;;;3.55;1.42;;;11.70;99.90;;;;;;5037583;28;20043;-62
2023/09/03 00:26:17;;;;;;;2.83;1.65;;;11.70;99.90;;;;;;4987565;28;20135;-62
2023/09/03 00:28:43;;;;;;;5.25;2.15;;;11.70;99.90;;;;;;4987836;28;20045;-62
2023/09/03 00:31:09;;;;;;;5.95;2.00;;;11.60;99.90;;;;;;5071036;28;20036;-62
2023/09/03 00:33:35;;;;;;;2.47;1.50;;;11.50;99.90;;;;;;5090015;28;20043;-61
2023/09/03 00:36:04;;;;;;;4.10;1.48;;;11.40;99.90;;;;;;5071820;28;20750;-62
2023/09/03 00:38:30;;;;;;;3.22;1.40;;;11.30;99.90;;;;;;5089386;28;20044;-62
2023/09/03 00:40:56;;;;;;;2.55;1.10;;;11.30;99.90;;;;;;5089752;28;20086;-62
2023/09/03 00:43:22;;;;;;;3.35;1.70;;;11.40;99.90;;;;;;5054222;28;20042;-62
2023/09/03 00:45:49;;;;;;;3.85;1.60;;;11.40;99.90;;;;;;5054421;28;20046;-62
2023/09/03 00:48:22;;;;;;;4.72;1.85;;;11.40;99.90;;;;;;5054753;28;20049;-61
2023/09/03 00:50:48;;;;;;;3.55;1.58;;;11.50;99.90;;;;;;5037296;28;20051;-62
2023/09/03 00:53:16;;;;;;;3.05;1.27;;;11.50;99.90;;;;;;5053929;28;20096;-62
2023/09/03 00:55:42;;;;;;;4.78;1.80;;;11.40;99.90;;;;;;5051884;28;20054;-62
2023/09/03 00:58:08;;;;;;;5.03;2.40;;;11.30;99.90;;;;;;4986645;28;20091;-62
2023/09/03 01:00:35;;;;;;;5.95;1.80;;;11.20;99.90;;;;;;5040204;28;20050;-62
2023/09/03 01:03:04;;;;;;;3.53;1.52;;;11.10;99.90;;;;;;4987313;28;20073;-62
2023/09/03 01:05:30;;;;;;;6.25;1.60;;;11.00;99.90;;;;;;4986794;28;20038;-62
2023/09/03 01:07:58;;;;;;;2.08;1.10;;;11.00;99.90;;;;;;5054035;28;20038;-62
2023/09/03 01:10:36;;;;;;;2.30;1.20;;;11.00;99.90;;;;;;5054265;28;20121;-62
2023/09/03 01:13:15;;;;;;;2.75;1.67;;;11.00;99.90;;;;;;5053806;28;20046;-62
2023/09/03 01:15:46;;;;;;;2.00;1.13;;;11.10;99.90;;;;;;5037518;28;20046;-62
2023/09/03 01:18:15;;;;;;;3.15;1.67;;;11.10;99.90;;;;;;5054057;28;20046;-62
2023/09/03 01:21:20;;;;;;;6.50;1.25;;;11.20;99.90;;;;;;4990133;28;20367;-62
2023/09/03 01:24:11;;;;;;;2.72;1.52;;;11.20;99.90;;;;;;4985345;28;20057;-61
2023/09/03 01:26:41;;;;;;;3.05;1.50;;;11.20;99.90;;;;;;4989592;28;20049;-62
2023/09/03 01:29:07;;;;;;;;;;;11.20;99.90;;;;;;4989499;28;20497;-61
2023/09/03 01:31:36;;;;;;;2.25;1.20;;;11.20;99.90;;;;;;4987042;28;20008;-61
2023/09/03 01:34:03;;;;;;;3.28;1.63;;;11.30;99.90;;;;;;4986533;28;20053;-61
2023/09/03 01:36:31;;;;;;;4.50;1.90;;;11.30;99.90;;;;;;4987000;28;20121;-62
2023/09/03 01:39:03;;;;;;;5.15;2.17;;;11.20;99.90;;;;;;4998760;28;20057;-61
2023/09/03 01:41:37;;;;;;;2.95;1.63;;;11.10;99.90;;;;;;4989645;28;20058;-61
2023/09/03 01:44:05;;;;;;;5.18;2.42;;;11.00;99.90;;;;;;4990308;28;20085;-62
2023/09/03 01:46:49;;;;;;;3.03;1.67;;;11.00;99.90;;;;;;4989994;28;20445;-62
2023/09/03 01:49:27;;;;;;;2.85;1.50;;;11.00;99.90;;;;;;4990519;28;20458;-62
2023/09/03 01:51:56;;;;;;;5.05;2.20;;;10.90;99.90;;;;;;5005866;28;20101;-61
2023/09/03 01:54:27;;;;;;;4.70;2.15;;;11.00;99.90;;;;;;5006160;28;20041;-62
2023/09/03 01:57:05;;;;;;;2.33;1.55;;;11.10;99.90;;;;;;5002353;28;20053;-62
2023/09/03 01:59:48;;;;;;;4.15;2.33;;;11.10;99.90;;;;;;4998237;28;20042;-62
2023/09/03 02:02:16;;;;;;;6.05;2.63;;;11.10;99.90;;;;;;4986285;28;20050;-62
2023/09/03 02:04:43;;;;;;;4.07;2.13;;;11.20;99.90;;;;;;5048042;28;20045;-61
2023/09/03 02:07:09;;;;;;;2.63;1.48;;;11.20;99.90;;;;;;5054275;28;20034;-62
2023/09/03 02:09:35;;;;;;;3.70;1.60;;;11.10;99.90;;;;;;4989341;28;20054;-62
2023/09/03 02:12:03;;;;;;;4.45;1.70;;;11.10;99.90;;;;;;4989905;28;20042;-62
2023/09/03 02:14:28;;;;;;;4.28;1.90;;;11.10;99.90;;;;;;4989317;28;20039;-61
2023/09/03 02:16:54;;;;;;;2.83;1.75;;;11.20;99.90;;;;;;5057824;28;20053;-62
2023/09/03 02:19:21;;;;;;;6.13;2.25;;;11.20;99.90;;;;;;4989700;28;20490;-62
2023/09/03 02:21:48;;;;;;;3.55;1.80;;;11.20;99.90;;;;;;4987984;28;20042;-62
2023/09/03 02:24:14;;;;;;;4.28;2.10;;;11.20;99.90;;;;;;4988342;28;20054;-61
2023/09/03 02:26:41;;;;;;;5.13;2.25;;;11.10;99.90;;;;;;4988678;28;20120;-62
2023/09/03 02:29:08;;;;;;;3.83;1.90;;;11.10;99.90;;;;;;4988862;28;20038;-62
2023/09/03 02:31:34;;;;;;;7.38;1.92;;;11.10;99.90;;;;;;5057130;28;20049;-61
2023/09/03 02:33:59;;;;;;;4.35;2.00;;;11.10;99.90;;;;;;5057324;28;20043;-61
2023/09/03 02:36:25;;;;;;;4.65;1.98;;;11.10;99.90;;;;;;4989111;28;20073;-62
2023/09/03 02:39:05;;;;;;;3.10;1.63;;;11.10;99.90;;;;;;5057162;28;20402;-62
2023/09/03 02:41:32;;;;;;;3.17;1.90;;;11.10;99.90;;;;;;5057016;28;20445;-62
2023/09/03 02:43:59;;;;;;;4.45;2.20;;;11.20;99.90;;;;;;5056340;28;20046;-62
2023/09/03 02:46:25;;;;;;;3.90;1.65;;;11.10;99.90;;;;;;5074061;28;20045;-62
2023/09/03 02:48:54;;;;;;;5.68;1.85;;;11.10;99.90;;;;;;5057226;28;20493;-61
2023/09/03 02:51:20;;;;;;;3.30;1.93;;;11.00;99.90;;;;;;4988789;28;20052;-61
2023/09/03 02:53:47;;;;;;;2.75;1.63;;;10.90;99.90;;;;;;5050699;28;20050;-61
2023/09/03 02:56:15;;;;;;;3.35;1.52;;;10.80;99.90;;;;;;4988800;28;20056;-61
2023/09/03 02:58:42;;;;;;;3.13;1.73;;;10.70;99.90;;;;;;5056611;28;20038;-61
2023/09/03 03:01:09;;;;;;;2.30;1.13;;;10.70;99.90;;;;;;4988902;28;20460;-61
2023/09/03 03:03:35;;;;;;;1.48;0.90;;;10.80;99.90;;;;;;4988500;28;20060;-61
2023/09/03 03:06:01;;;;;;;1.30;0.80;;;10.80;99.90;;;;;;5039910;28;20042;-61
2023/09/03 03:08:27;;;;;;;1.30;0.80;;;10.80;99.90;;;;;;5056328;28;20039;-61
2023/09/03 03:11:03;;;;;;;1.60;0.90;;;10.70;99.90;;;;;;5055868;28;20045;-61
2023/09/03 03:13:29;;;;;;;2.15;0.98;;;10.70;99.90;;;;;;5056462;28;20057;-61
2023/09/03 03:15:55;;;;;;;2.28;1.48;;;10.80;99.90;;;;;;4989155;28;20042;-61
2023/09/03 03:18:20;;;;;;;2.55;1.25;;;10.70;99.90;;;;;;4987900;28;20070;-61
2023/09/03 03:20:46;;;;;;;8.20;1.70;;;10.70;99.90;;;;;;5039558;28;20038;-61
2023/09/03 03:23:12;;;;;;;1.88;0.77;;;10.70;99.90;;;;;;5056059;28;20042;-61
2023/09/03 03:25:37;;;;;;;3.20;1.15;;;10.70;99.90;;;;;;5055717;28;20153;-61
2023/09/03 03:28:04;;;;;;;3.13;1.38;;;10.70;99.90;;;;;;5056291;28;20070;-61
2023/09/03 03:30:29;;;;;;;5.20;1.60;;;10.70;99.90;;;;;;5032442;28;20035;-62
2023/09/03 03:32:55;;;;;;;4.53;1.45;;;10.70;99.90;;;;;;4988056;28;20050;-61
2023/09/03 03:35:21;;;;;;;2.65;1.13;;;10.60;99.90;;;;;;4988765;28;20069;-61
2023/09/03 03:37:47;;;;;;;2.47;1.20;;;10.60;99.90;;;;;;4988625;28;20510;-61
2023/09/03 03:40:12;;;;;;;1.95;1.40;;;10.60;99.90;;;;;;4988344;28;20038;-61
2023/09/03 03:42:38;;;;;;;5.10;1.60;;;10.50;99.90;;;;;;5055723;28;20125;-61
2023/09/03 03:45:04;;;;;;;3.08;1.40;;;10.50;99.90;;;;;;4988497;28;20046;-62
2023/09/03 03:47:30;;;;;;;1.75;1.23;;;10.50;99.90;;;;;;5055121;28;20053;-61
2023/09/03 03:49:56;;;;;;;2.22;1.35;;;10.50;99.90;;;;;;5039521;28;20039;-61
2023/09/03 03:52:22;;;;;;;2.50;1.33;;;10.50;99.90;;;;;;5039270;28;20069;-61
2023/09/03 03:54:49;;;;;;;2.40;1.27;;;10.40;99.90;;;;;;4988217;28;20223;-61
2023/09/03 03:57:15;;;;;;;2.92;1.23;;;10.40;99.90;;;;;;4987304;28;20050;-61
2023/09/03 03:59:41;;;;;;;3.40;1.27;;;10.40;99.90;;;;;;5010830;28;20042;-61
2023/09/03 04:02:06;;;;;;;2.28;1.40;;;10.40;99.90;;;;;;4988215;28;20468;-61
2023/09/03 04:04:32;;;;;;;3.33;1.58;;;10.40;99.90;;;;;;5038858;28;20053;-61
2023/09/03 04:06:58;;;;;;;3.05;1.35;;;10.40;99.90;;;;;;4987508;28;20050;-61
2023/09/03 04:09:27;;;;;;;7.32;2.70;;;10.40;99.90;;;;;;5055384;28;20034;-61
2023/09/03 04:11:52;;;;;;;3.08;1.40;;;10.40;99.90;;;;;;4988247;28;20399;-61
2023/09/03 04:14:18;;;;;;;4.15;1.90;;;10.30;99.90;;;;;;5054914;28;20047;-61
2023/09/03 04:16:44;;;;;;;3.60;1.88;;;10.40;99.90;;;;;;5014467;28;20061;-61
2023/09/03 04:19:11;;;;;;;2.58;1.40;;;10.30;99.90;;;;;;4986963;28;20499;-61
2023/09/03 04:21:37;;;;;;;5.13;2.45;;;10.40;99.90;;;;;;4969852;28;20537;-61
2023/09/03 04:24:03;;;;;;;6.40;2.42;;;10.40;99.90;;;;;;4987773;28;20046;-61
2023/09/03 04:26:28;;;;;;;4.70;2.10;;;10.40;99.90;;;;;;4986593;28;20050;-61
2023/09/03 04:28:54;;;;;;;3.25;1.85;;;10.40;99.90;;;;;;4986299;28;20069;-61
2023/09/03 04:31:20;;;;;;;3.50;1.92;;;10.50;99.90;;;;;;4968632;28;20117;-61
2023/09/03 04:33:46;;;;;;;3.33;1.95;;;10.40;99.90;;;;;;5035360;28;20129;-61
2023/09/03 04:36:12;;;;;;;3.85;2.17;;;10.50;99.90;;;;;;4967686;28;20483;-61
2023/09/03 04:38:38;;;;;;;3.85;1.88;;;10.40;99.90;;;;;;4968477;28;20069;-61
2023/09/03 04:41:04;;;;;;;3.03;1.85;;;10.40;99.90;;;;;;5034752;28;20525;-61
2023/09/03 04:43:32;;;;;;;3.67;1.75;;;10.40;99.90;;;;;;4967623;28;20050;-61
2023/09/03 04:45:58;;;;;;;5.78;2.33;;;10.40;99.90;;;;;;5000806;28;20139;-61
2023/09/03 04:48:24;;;;;;;7.22;2.78;;;10.40;99.90;;;;;;4987261;28;20038;-61
2023/09/03 04:50:50;;;;;;;5.97;2.30;;;10.50;99.90;;;;;;4987528;28;20042;-61
2023/09/03 04:53:16;;;;;;;5.68;2.58;;;10.50;99.90;;;;;;4987523;28;20042;-61
2023/09/03 04:55:42;;;;;;;6.78;2.72;;;10.60;99.90;;;;;;5053684;28;20050;-61
2023/09/03 04:58:08;;;;;;;4.65;2.35;;;10.60;99.90;;;;;;5054656;28;20410;-61
2023/09/03 05:00:34;;;;;;;4.70;2.45;;;10.60;99.90;;;;;;5054223;28;20108;-61
2023/09/03 05:03:03;;;;;;;5.38;2.30;;;10.70;99.90;;;;;;5037074;28;20413;-61
2023/09/03 05:05:29;;;;;;;6.05;2.47;;;10.70;99.90;;;;;;5054388;28;20054;-61
2023/09/03 05:07:55;;;;;;;5.45;2.10;;;10.70;99.90;;;;;;5054466;28;20551;-61
2023/09/03 05:10:21;;;;;;;3.25;1.67;;;10.60;99.90;;;;;;5053953;28;20042;-61
2023/09/03 05:12:46;;;;;;;3.63;1.77;;;10.60;99.90;;;;;;5037867;28;20559;-62
2023/09/03 05:15:13;;;;;;;3.38;2.08;;;10.70;99.90;;;;;;4987230;28;20091;-61
2023/09/03 05:17:39;;;;;;;4.90;2.40;;;10.60;99.90;;;;;;5053459;28;20129;-61
2023/09/03 05:20:06;;;;;;;5.70;2.00;;;10.60;99.90;;;;;;5054185;28;20100;-61
2023/09/03 05:22:32;;;;;;;6.05;2.53;;;10.70;99.90;;;;;;5054299;28;20065;-61
2023/09/03 05:24:58;;;;;;;9.15;2.42;;;10.70;99.90;;;;;;5066908;28;20083;-61
2023/09/03 05:27:24;;;;;;;6.28;3.17;;;10.80;99.90;;;;;;5050592;28;20485;-61
2023/09/03 05:29:50;;;;;;;4.95;2.30;;;10.80;99.90;;;;;;5049150;28;20033;-61
2023/09/03 05:32:16;;;;;;;6.35;2.90;;;10.90;99.90;;;;;;5070599;28;20076;-61
2023/09/03 05:34:42;;;;;;;5.10;2.42;;;11.00;99.90;;;;;;5055840;28;20037;-61
2023/09/03 05:37:07;;;;;;;6.40;3.58;;;11.00;99.90;;;;;;5048410;28;20052;-61
2023/09/03 05:39:33;;;;;;;5.97;3.22;;;11.10;99.90;;;;;;5048790;28;20062;-62
2023/09/03 05:41:59;;;;;;;7.63;2.50;;;11.20;99.90;;;;;;5059862;28;20052;-61
2023/09/03 05:44:25;;;;;;;6.13;3.08;;;11.30;99.90;;;;;;5067623;28;20182;-62
2023/09/03 05:46:50;;;;;;;6.43;2.53;;;11.30;99.90;;;;;;5068817;28;20040;-61
2023/09/03 05:49:16;;;;;;;6.80;2.78;;;11.40;99.90;;;;;;5067323;28;20052;-61
2023/09/03 05:51:42;;;;;;;6.43;2.70;;;11.40;99.90;;;;;;5068190;28;20042;-61
2023/09/03 05:54:08;;;;;;;4.85;2.08;;;11.50;99.90;;;;;;5068952;28;20045;-62
2023/09/03 05:56:37;;;;;;;7.57;3.17;;;11.50;99.90;;;;;;5067692;28;20089;-62
2023/09/03 05:59:08;;;;;;;6.15;3.00;;;11.60;99.90;;;;;;5066673;28;20411;-62
2023/09/03 06:01:35;;;;;;;7.95;3.60;;;11.60;99.90;;;;;;5066830;28;20482;-61
2023/09/03 06:04:04;;;;;;;7.15;2.88;;;11.70;99.90;;;;;;5068910;28;20051;-61
2023/09/03 06:06:40;;;;;;;;;;;11.80;99.90;;;;;;5069082;28;20048;-61
2023/09/03 06:09:06;;;;;;;9.93;3.42;;;11.90;99.90;;;;;;5069215;28;19920;-61
2023/09/03 06:11:36;;;;;;;7.75;3.53;;;11.90;99.90;;;;;;5069048;28;20080;-61
2023/09/03 06:14:02;;;;;;;6.60;3.15;;;12.00;99.90;;;;;;5068321;28;20058;-61
2023/09/03 06:16:28;;;;;;;9.82;3.67;;;12.10;99.90;;;;;;5067892;28;20416;-62
2023/09/03 06:18:54;;;;;;;7.93;3.08;;;12.20;99.90;;;;;;5067987;28;20044;-62
2023/09/03 06:21:20;;;;;;;9.48;3.55;;;12.40;99.90;;;;;;5067290;28;20056;-62
2023/09/03 06:23:46;;;;;;;9.88;4.00;;;12.50;99.90;;;;;;5020826;28;20054;-61
2023/09/03 06:26:13;;;;;;;7.63;3.50;;;12.60;99.90;;;;;;5034123;28;20491;-62
2023/09/03 06:28:39;;;;;;;6.85;3.05;;;12.70;99.90;;;;;;4967324;28;20047;-62
2023/09/03 06:31:05;;;;;;;5.45;2.92;;;12.90;99.90;;;;;;4981530;28;20071;-62
2023/09/03 06:33:31;;;;;;;8.05;2.85;;;13.10;99.90;;;;;;4986773;28;20123;-62
2023/09/03 06:35:57;;;;;;;8.45;3.45;;;13.30;99.90;;;;;;4987295;28;20074;-62
2023/09/03 06:38:22;;;;;;;5.13;2.50;;;13.50;99.90;;;;;;4987198;28;20099;-62
2023/09/03 06:40:49;;;;;;;5.55;2.22;;;13.70;99.90;;;;;;5053614;28;20536;-62
2023/09/03 06:43:15;;;;;;;5.80;3.13;;;13.90;99.90;;;;;;5021338;28;20062;-62
2023/09/03 06:45:41;;;;;;;4.10;2.67;;;14.10;99.90;;;;;;5053915;28;20043;-62
2023/09/03 06:48:08;;;;;;;6.35;2.60;;;14.30;99.90;;;;;;5035261;28;20053;-62
2023/09/03 06:50:34;;;;;;;4.22;2.30;;;14.40;99.90;;;;;;5034879;28;20046;-62
2023/09/03 06:53:00;;;;;;;4.05;2.20;;;14.50;99.90;;;;;;5055080;28;20127;-63
2023/09/03 06:55:26;;;;;;;6.10;2.05;;;14.60;99.90;;;;;;4988706;28;20479;-62
2023/09/03 06:57:52;;;;;;;5.78;2.35;;;14.70;99.90;;;;;;5056764;28;20034;-62
2023/09/03 07:00:17;;;;;;;3.85;2.45;;;14.80;99.90;;;;;;4988724;28;20073;-62
2023/09/03 07:02:43;;;;;;;6.13;2.85;;;14.90;99.90;;;;;;4987853;28;20756;-62
2023/09/03 07:05:09;;;;;;;3.90;2.03;;;15.00;99.90;;;;;;5057413;28;20413;-62
2023/09/03 07:07:35;;;;;;;6.45;2.40;;;15.10;99.90;;;;;;4989821;28;20042;-62
2023/09/03 07:10:01;;;;;;;3.85;2.17;;;15.30;99.90;;;;;;4989003;28;20043;-62
2023/09/03 07:12:27;;;;;;;2.88;1.65;;;15.30;99.90;;;;;;5056707;28;20513;-62
2023/09/03 07:14:53;;;;;;;4.30;2.17;;;15.40;99.90;;;;;;5057170;28;20051;-62
2023/09/03 07:17:19;;;;;;;4.28;2.53;;;15.50;99.90;;;;;;5057006;28;20060;-62
2023/09/03 07:19:45;;;;;;;4.07;2.10;;;15.60;99.90;;;;;;4972976;28;20047;-63
2023/09/03 07:22:11;;;;;;;4.47;1.90;;;15.70;99.90;;;;;;4970193;28;20057;-63
2023/09/03 07:24:37;;;;;;;4.28;1.92;;;15.80;99.90;;;;;;4969226;28;20074;-63
2023/09/03 07:27:03;;;;;;;3.45;1.52;;;15.90;99.90;;;;;;5036946;28;20527;-63
2023/09/03 07:29:28;;;;;;;6.03;2.20;;;16.00;99.90;;;;;;5041723;28;20601;-62
2023/09/03 07:31:54;;;;;;;3.17;1.40;;;16.10;99.90;;;;;;5056959;28;20042;-62
2023/09/03 07:34:20;;;;;;;2.78;1.45;;;16.30;99.90;;;;;;5056643;28;20178;-62
2023/09/03 07:36:46;;;;;;;2.70;1.35;;;16.40;99.90;;;;;;5055704;28;20049;-62
2023/09/03 07:39:11;;;;;;;2.55;0.82;;;16.60;99.90;;;;;;5055512;28;20046;-63
2023/09/03 07:41:38;;;;;;;3.38;1.13;;;16.70;99.90;;;;;;5056755;28;20042;-63
2023/09/03 07:44:04;;;;;;;2.47;1.02;;;16.90;99.90;;;;;;5056058;28;20034;-62
2023/09/03 07:46:31;;;;;;;2.38;0.98;;;17.00;99.90;;;;;;4990154;28;20050;-62
2023/09/03 07:48:57;;;;;;;3.08;1.50;;;17.20;99.90;;;;;;5055727;28;20483;-62
2023/09/03 07:51:22;;;;;;;3.60;1.27;;;17.40;99.90;;;;;;5054998;28;20049;-62
2023/09/03 07:53:49;;;;;;;2.83;1.17;;;17.50;99.90;;;;;;4988350;28;20042;-62
2023/09/03 07:56:16;;;;;;;2.78;1.02;;;17.50;99.90;;;;;;5055441;28;20505;-63
2023/09/03 07:58:43;;;;;;;2.10;1.10;;;17.60;99.90;;;;;;5038013;28;20066;-62
2023/09/03 08:01:12;;;;;;;2.78;1.33;;;17.70;99.90;;;;;;5055172;28;20054;-62
2023/09/03 08:03:39;;;;;;;;;;;17.80;99.90;;;;;;5055754;28;20058;-63
2023/09/03 08:06:08;;;;;;;3.80;1.25;;;18.20;99.90;;;;;;4987699;28;19917;-62
2023/09/03 08:08:34;;;;;;;2.20;1.17;;;18.60;99.90;;;;;;5054841;28;20054;-61
2023/09/03 08:11:01;;;;;;;3.13;1.17;;;19.10;99.90;;;;;;5056075;28;20421;-60
2023/09/03 08:13:26;;;;;;;2.28;1.25;;;19.60;99.90;;;;;;4988381;28;20393;-61
2023/09/03 08:15:52;;;;;;;3.75;1.67;;;20.10;99.90;;;;;;5040146;28;20053;-62
2023/09/03 08:18:18;;;;;;;3.05;1.77;;;20.40;99.90;;;;;;4969042;28;20051;-61
2023/09/03 08:20:44;;;;;;;3.08;1.33;;;20.60;99.90;;;;;;4969179;28;20605;-60
2023/09/03 08:23:11;;;;;;;3.63;1.27;;;20.60;99.90;;;;;;4969069;28;20035;-60
2023/09/03 08:25:38;;;;;;;3.97;1.23;;;20.60;99.90;;;;;;5035570;28;20444;-61
2023/09/03 08:28:04;;;;;;;2.85;1.33;;;20.70;99.90;;;;;;5038245;28;20038;-60
2023/09/03 08:30:30;;;;;;;2.22;1.13;;;21.10;99.90;;;;;;5055418;28;20073;-61
2023/09/03 08:32:56;;;;;;;2.00;1.00;;;21.50;99.90;;;;;;4987228;28;20081;-61
2023/09/03 08:35:22;;;;;;;2.78;1.45;;;21.70;99.90;;;;;;4988221;28;20042;-61
2023/09/03 08:37:48;;;;;;;2.15;1.10;;;21.90;99.90;;;;;;5054972;28;20125;-61
2023/09/03 08:40:16;;;;;;;4.68;2.20;;;21.90;99.90;;;;;;4987315;28;20039;-61
2023/09/03 08:42:45;;;;;;;2.17;1.13;;;22.10;99.90;;;;;;5054765;28;20038;-60
2023/09/03 08:45:12;;;;;;;1.23;0.73;;;22.20;99.90;;;;;;4987460;28;20107;-61
2023/09/03 08:47:44;;;;;;;1.80;0.73;;;22.30;99.90;;;;;;5054248;28;20038;-61
2023/09/03 08:50:16;;;;;;;2.58;0.90;;;22.20;99.90;;;;;;5054703;28;20056;-61
2023/09/03 08:52:43;;;;;;;1.60;1.00;;;22.20;99.90;;;;;;4987480;28;20522;-61
2023/09/03 08:55:13;;;;;;;1.10;0.68;;;22.40;99.90;;;;;;4986937;28;20061;-61
2023/09/03 08:57:40;;;;;;;1.48;0.80;;;22.80;99.90;;;;;;4987603;28;20050;-60
2023/09/03 09:00:07;;;;;;;3.10;1.10;;;23.10;99.90;;;;;;4987100;28;20487;-60
2023/09/03 09:02:34;;;;;;;1.58;0.93;;;23.10;99.90;;;;;;4986711;28;20534;-61
2023/09/03 09:05:05;;;;;;;1.08;0.73;;;22.90;99.90;;;;;;4987269;28;20053;-61
2023/09/03 09:07:32;;;;;;;2.28;0.93;;;22.90;99.90;;;;;;5054075;28;20041;-61
2023/09/03 09:10:01;;;;;;;1.67;0.80;;;22.90;99.90;;;;;;5054482;28;20042;-61
2023/09/03 09:12:45;;;;;;;0.88;0.60;;;22.90;99.90;;;;;;5037601;28;20107;-61
2023/09/03 09:15:10;;;;;;;3.97;0.75;;;23.00;99.90;;;;;;4985914;28;20089;-61
2023/09/03 09:17:43;;;;;;;1.55;0.70;;;23.30;99.90;;;;;;5054284;28;20109;-61
2023/09/03 09:20:14;;;;;;;1.98;0.85;;;23.40;99.90;;;;;;5053997;28;20103;-61
2023/09/03 09:22:45;;;;;;;4.72;1.33;;;23.40;99.90;;;;;;4986463;28;20047;-61
2023/09/03 09:25:37;;;;;;;1.95;1.05;;;23.20;99.90;;;;;;5067511;28;20135;-61
2023/09/03 09:28:13;;;;;;;1.42;0.70;;;23.00;99.90;;;;;;5066233;28;20080;-60
2023/09/03 09:30:59;;;;;;;2.00;0.90;;;23.00;99.90;;;;;;5069112;28;20044;-60
2023/09/03 09:33:25;;;;;;;2.60;1.38;;;22.80;99.90;;;;;;5067483;28;20539;-61
2023/09/03 09:35:52;;;;;;;2.00;1.00;;;22.80;99.90;;;;;;5067152;28;20044;-61
2023/09/03 09:38:18;;;;;;;1.50;0.77;;;23.10;99.90;;;;;;5068785;28;20044;-61
2023/09/03 09:40:44;;;;;;;2.58;0.82;;;23.50;99.90;;;;;;5069058;28;20101;-61
2023/09/03 09:43:10;;;;;;;2.47;1.05;;;24.00;99.90;;;;;;5068130;28;20075;-61
2023/09/03 09:45:53;;;;;;;2.80;1.05;;;24.40;99.90;;;;;;5068741;28;20135;-61
2023/09/03 09:48:18;;;;;;;2.92;1.13;;;24.70;99.90;;;;;;5068862;28;20079;-61
2023/09/03 09:50:46;;;;;;;2.70;1.20;;;24.90;99.90;;;;;;5067163;28;20044;-60
2023/09/03 09:53:25;;;;;;;1.83;0.85;;;24.70;99.90;;;;;;5069013;28;20145;-61
2023/09/03 09:55:59;;;;;;;1.02;0.60;;;24.30;99.90;;;;;;5067307;28;20571;-61
2023/09/03 09:58:43;;;;;;;2.00;0.65;;;24.40;99.90;;;;;;5068255;28;20063;-60
2023/09/03 10:01:09;;;;;;;3.40;1.08;;;24.70;99.90;;;;;;5068394;28;20056;-61
2023/09/03 10:03:42;;;;;;;2.63;1.00;;;25.10;99.90;;;;;;5068093;28;20044;-61
2023/09/03 10:06:09;;;;;;;1.92;1.00;;;25.40;99.90;;;;;;5067597;28;20442;-61
2023/09/03 10:08:35;;;;;;;2.03;0.90;;;25.40;99.90;;;;;;5058810;28;20427;-60
2023/09/03 10:11:01;;;;;;;2.60;1.00;;;25.60;99.90;;;;;;5067650;28;20044;-61
2023/09/03 10:13:28;;;;;;;3.55;1.05;;;25.60;99.90;;;;;;5069296;28;20381;-61
2023/09/03 10:15:56;;;;;;;1.88;1.13;;;25.60;99.90;;;;;;5069320;28;20055;-61
2023/09/03 10:18:23;;;;;;;1.77;0.70;;;25.50;99.90;;;;;;5067738;28;20048;-61
2023/09/03 10:20:49;;;;;;;2.92;0.82;;;25.40;99.90;;;;;;5067684;28;20102;-61
2023/09/03 10:23:20;;;;;;;2.95;0.80;;;25.60;99.90;;;;;;5057319;28;20065;-61
2023/09/03 10:25:46;;;;;;;1.13;0.68;;;25.90;99.90;;;;;;4986319;28;20042;-61
2023/09/03 10:28:23;;;;;;;1.90;0.70;;;26.20;99.90;;;;;;4989771;28;20497;-61
2023/09/03 10:30:52;;;;;;;1.50;0.60;;;26.40;99.90;;;;;;5039991;28;20057;-61
2023/09/03 10:33:18;;;;;;;1.40;0.70;;;26.40;99.90;;;;;;5055373;28;20053;-61
2023/09/03 10:36:13;;;;;;;1.13;0.50;;;26.40;99.90;;;;;;5056290;28;20046;-61
2023/09/03 10:38:40;;;;;;;1.92;0.90;;;26.60;99.90;;;;;;4988122;28;20458;-61
2023/09/03 10:41:25;;;;;;;1.35;0.40;;;26.80;99.90;;;;;;4989381;28;20440;-62
2023/09/03 10:43:53;;;;;;;2.10;0.47;;;27.30;99.90;;;;;;5057007;28;20050;-62
2023/09/03 10:46:22;;;;;;;1.13;0.30;;;27.50;99.90;;;;;;4970931;28;20039;-61
2023/09/03 10:48:55;;;;;;;;;;;27.40;99.90;;;;;;5037395;28;20046;-61
2023/09/03 10:51:37;;;;;;;0.75;0.40;;;27.40;99.50;;;;;;5036904;28;19918;-61
2023/09/03 10:54:20;;;;;;;2.20;0.40;;;27.70;99.90;;;;;;4969455;28;20065;-62
2023/09/03 10:57:04;;;;;;;1.00;0.40;;;27.70;99.90;;;;;;5036987;28;20055;-61
2023/09/03 10:59:58;;;;;;;1.17;0.35;;;27.60;99.90;;;;;;5043425;28;20046;-61
2023/09/03 11:02:31;;;;;;;0.32;0.20;;;27.30;99.90;;;;;;5036600;28;20050;-61
2023/09/03 11:05:21;;;;;;;1.73;0.60;;;27.10;99.90;;;;;;5083207;28;20101;-61
2023/09/03 11:07:49;;;;;;;0.98;0.35;;;26.90;99.90;;;;;;5066952;28;20123;-61
2023/09/03 11:10:25;;;;;;;1.42;0.50;;;26.60;99.90;;;;;;5056315;28;20552;-61
2023/09/03 11:12:52;;;;;;;1.23;0.57;;;26.40;99.90;;;;;;5056592;28;20055;-60
2023/09/03 11:15:19;;;;;;;1.85;0.50;;;26.30;99.90;;;;;;5019957;28;20123;-61
2023/09/03 11:17:51;;;;;;;1.08;0.35;;;26.50;99.90;;;;;;5091674;28;20078;-61
2023/09/03 11:20:47;;;;;;;2.20;0.63;;;26.60;99.90;;;;;;5090981;28;20101;-61
2023/09/03 11:23:14;;;;;;;0.93;0.50;;;26.40;99.90;;;;;;5056578;28;20435;-61
2023/09/03 11:25:40;;;;;;;2.28;0.50;;;26.10;99.90;;;;;;5018160;28;20111;-61
2023/09/03 11:28:11;;;;;;;0.75;0.47;;;26.00;99.90;;;;;;5001954;28;20074;-61
2023/09/03 11:30:38;;;;;;;1.98;0.30;;;26.10;99.90;;;;;;5055774;28;20062;-61
2023/09/03 11:33:08;;;;;;;1.25;0.40;;;25.90;99.90;;;;;;5056175;28;20100;-61
2023/09/03 11:35:44;;;;;;;0.75;0.40;;;25.90;99.90;;;;;;4988022;28;20491;-61
2023/09/03 11:38:11;;;;;;;1.17;0.45;;;25.90;99.90;;;;;;4968760;28;20039;-61
2023/09/03 11:40:38;;;;;;;2.03;0.40;;;25.80;99.90;;;;;;4969701;28;20072;-60
2023/09/03 11:43:10;;;;;;;0.63;0.30;;;25.50;99.80;;;;;;4968606;28;20109;-61
2023/09/03 11:45:36;;;;;;;0.65;0.32;;;25.20;99.90;;;;;;5052695;28;20043;-61
2023/09/03 11:48:06;;;;;;;0.70;0.40;;;25.30;99.90;;;;;;4968979;28;20065;-61
2023/09/03 11:50:35;;;;;;;1.00;0.60;;;25.30;99.90;;;;;;4968419;28;20433;-61
2023/09/03 11:53:04;;;;;;;0.77;0.35;;;25.40;99.80;;;;;;5035790;28;20113;-61
2023/09/03 11:55:37;;;;;;;2.25;0.40;;;25.50;99.10;;;;;;5051565;28;20049;-61
2023/09/03 11:58:06;;;;;;;1.25;0.30;;;25.50;98.20;;;;;;4985103;28;20554;-61
2023/09/03 12:00:32;;;;;;;0.70;0.50;;;25.30;98.20;;;;;;4987870;28;20049;-61
2023/09/03 12:02:59;;;;;;;1.27;0.50;;;25.20;98.10;;;;;;5054965;28;20119;-61
2023/09/03 12:05:26;;;;;;;1.42;0.50;;;25.20;98.30;;;;;;4988183;28;20042;-61
2023/09/03 12:07:52;;;;;;;0.60;0.40;;;25.20;97.50;;;;;;5055243;28;20148;-61
2023/09/03 12:10:19;;;;;;;0.40;0.22;;;25.10;98.00;;;;;;5054463;28;20103;-61
2023/09/03 12:12:45;;;;;;;0.88;0.35;;;25.00;98.30;;;;;;4988225;28;20394;-61
2023/09/03 12:15:22;;;;;;;1.00;0.45;;;25.00;98.30;;;;;;4987827;28;20145;-61
2023/09/03 12:17:48;;;;;;;1.30;0.30;;;25.00;98.00;;;;;;5054671;28;20064;-61
2023/09/03 12:20:34;;;;;;;0.57;0.45;;;25.00;98.30;;;;;;5054948;28;20519;-61
2023/09/03 12:23:12;;;;;;;1.25;0.52;;;24.90;98.10;;;;;;5054741;28;20427;-61
2023/09/03 12:25:39;;;;;;;0.90;0.40;;;24.80;98.40;;;;;;5054373;28;20054;-61
2023/09/03 12:28:05;;;;;;;0.75;0.30;;;24.80;99.10;;;;;;4988417;28;20095;-61
2023/09/03 12:30:57;;;;;;;1.33;0.63;;;24.70;98.70;;;;;;5054958;28;20050;-61
2023/09/03 12:33:43;;;;;;;0.55;0.40;;;24.70;98.30;;;;;;5055422;28;20502;-61
2023/09/03 12:36:17;;;;;;;1.73;0.50;;;24.70;98.70;;;;;;5055590;28;20046;-61
2023/09/03 12:39:04;;;;;;;0.65;0.35;;;24.90;98.50;;;;;;5037535;28;20054;-61
2023/09/03 12:41:35;;;;;;;0.65;0.22;;;25.00;98.60;;;;;;5016873;28;20050;-61
2023/09/03 12:44:06;;;;;;;0.90;0.30;;;25.30;98.60;;;;;;4988016;28;20486;-61
2023/09/03 12:46:33;;;;;;;2.05;0.55;;;25.50;97.90;;;;;;4986891;28;20071;-61
2023/09/03 12:49:01;;;;;;;0.60;0.40;;;25.30;97.40;;;;;;4987257;28;20053;-61
2023/09/03 12:51:27;;;;;;;1.17;0.35;;;25.10;97.30;;;;;;4986731;28;20099;-61
2023/09/03 12:53:52;;;;;;;1.60;0.88;;;25.00;98.40;;;;;;5051022;28;20042;-61
2023/09/03 12:56:18;;;;;;;0.75;0.30;;;24.90;98.20;;;;;;5055028;28;20048;-61